Startpagina
METAR-TAF:

METAR-TAF

Vliegvelden :

Ho Chi Minhstad, Vietnam

Internationale luchthaven Tan Son Nhat

breedte: 10-49N, lengte: 106-40E, hoogte: 19 m

Actueel weer

Dit bericht is 27 minuten geleden gemaakt, om 18:00 UTC
Wind 7 kt uit het oosten, variërend tussen het oostnoordoosten en het zuidoosten
Temperatuur 26°C
Vochtigheid 79%
Druk 1011 hPa
Zicht 10 km of meer
Weinig wolken op 1700 ft
Verspreide wolken op 5000 ft

METAR: VVTS 231800Z 10007KT 060V130 9999 FEW017 SCT050 26/22 Q1011 NOSIG

Tijdstip: 01:27 (18:27 UTC)

Verwachting

Dit bericht is 1 uur en het 27 minuten geleden gemaakt, om 17:00 UTC
Verwachting geldig van 23 om 18 UTC tot 24 om 24 UTC
Wind 6 kt uit het oostzuidoosten
Zicht 10 km of meer
Weinig wolken op 1700 ft
Verspreide wolken op 4000 ft
Wijzigt naar
van 24 om 00 UTC tot 24 om 01 UTC
Wind 8 kt uit het noordoosten
Wijzigt naar
van 24 om 07 UTC tot 24 om 08 UTC
Wind 10 kt uit het zuidzuidoosten

TAF: VVTS 231700Z 2318/2424 11006KT 9999 FEW017 SCT040 BECMG 2400/2401 05008KT BECMG 2407/2408 15010KT

Waarnemingen en weersverwachtingen van meer dan 4000 vliegvelden (METAR en TAF).

De beschikbare stations zijn de gele en rode punten op de kaart.

Ga met uw muis naar het station om de naam te zien.

Klik dan om waarnemingen en weersverwachtingen te zien.

kaart wijzigen: klik op de groene knoppen met een zwart kruis om in te zoomen, op de groene knop met een streepje om uit te zoomen of op de groene pijlen voor aangrenzende kaarten.


METAR-TAF: